Terminal Aerodrome Forecast
Issued by NWS Louisville, KY

Home | Current Version | Previous Version | Text Only | Print | Product List | Glossary On
Versions: 1 2 3 4 5 6 7 8 9 10 11 12 13
000
FTUS43 KLMK 281100
TAFBWG
TAF
KBWG 281125Z 2812/2912 21012KT P6SM BKN050
     FM281600 24010KT P6SM SHRA VCTS BKN040CB
      TEMPO 2817/2820 5SM BR BKN025
     FM282200 30008KT P6SM SCT040
     FM290600 34004KT P6SM SCT150=

USA.gov is the U.S. government's official web portal to all federal, state and local government web resources and services.